sensor_id;sensor_type;location;lat;lon;timestamp;P1;durP1;ratioP1;P2;durP2;ratioP2
5981;SDS011;3018;48.730;9.336;2023-06-22T00:00:08;6.82;;;6.10;;
5981;SDS011;3018;48.730;9.336;2023-06-22T00:02:38;6.43;;;5.93;;
5981;SDS011;3018;48.730;9.336;2023-06-22T00:05:04;8.40;;;5.97;;
5981;SDS011;3018;48.730;9.336;2023-06-22T00:07:31;8.18;;;5.85;;
5981;SDS011;3018;48.730;9.336;2023-06-22T00:09:57;6.82;;;6.18;;
5981;SDS011;3018;48.730;9.336;2023-06-22T00:12:23;7.35;;;6.65;;
5981;SDS011;3018;48.730;9.336;2023-06-22T00:14:49;7.80;;;6.35;;
5981;SDS011;3018;48.730;9.336;2023-06-22T00:17:16;7.85;;;5.95;;
5981;SDS011;3018;48.730;9.336;2023-06-22T00:19:43;7.22;;;6.57;;
5981;SDS011;3018;48.730;9.336;2023-06-22T00:22:12;7.32;;;6.47;;
5981;SDS011;3018;48.730;9.336;2023-06-22T00:24:38;7.20;;;6.22;;
5981;SDS011;3018;48.730;9.336;2023-06-22T00:27:05;7.97;;;7.15;;
5981;SDS011;3018;48.730;9.336;2023-06-22T00:29:31;7.47;;;6.70;;
5981;SDS011;3018;48.730;9.336;2023-06-22T00:31:57;7.88;;;7.25;;
5981;SDS011;3018;48.730;9.336;2023-06-22T00:34:24;7.35;;;6.75;;
5981;SDS011;3018;48.730;9.336;2023-06-22T00:36:51;11.13;;;7.63;;
5981;SDS011;3018;48.730;9.336;2023-06-22T00:39:17;7.88;;;7.00;;
5981;SDS011;3018;48.730;9.336;2023-06-22T00:41:44;7.75;;;7.00;;
5981;SDS011;3018;48.730;9.336;2023-06-22T00:44:10;9.02;;;6.90;;
5981;SDS011;3018;48.730;9.336;2023-06-22T00:46:37;7.22;;;6.55;;
5981;SDS011;3018;48.730;9.336;2023-06-22T00:49:03;9.82;;;6.75;;
5981;SDS011;3018;48.730;9.336;2023-06-22T00:51:30;8.38;;;6.82;;
5981;SDS011;3018;48.730;9.336;2023-06-22T00:53:58;8.25;;;7.45;;
5981;SDS011;3018;48.730;9.336;2023-06-22T00:56:25;8.45;;;7.18;;
5981;SDS011;3018;48.730;9.336;2023-06-22T00:58:51;8.20;;;7.40;;
5981;SDS011;3018;48.730;9.336;2023-06-22T01:01:19;7.97;;;7.20;;
5981;SDS011;3018;48.730;9.336;2023-06-22T01:03:48;6.47;;;6.07;;
5981;SDS011;3018;48.730;9.336;2023-06-22T01:06:16;7.32;;;6.63;;
5981;SDS011;3018;48.730;9.336;2023-06-22T01:08:46;8.18;;;7.05;;
5981;SDS011;3018;48.730;9.336;2023-06-22T01:11:18;8.13;;;6.97;;
5981;SDS011;3018;48.730;9.336;2023-06-22T01:13:48;9.05;;;6.90;;
5981;SDS011;3018;48.730;9.336;2023-06-22T01:16:17;8.43;;;7.57;;
5981;SDS011;3018;48.730;9.336;2023-06-22T01:18:46;9.75;;;6.50;;
5981;SDS011;3018;48.730;9.336;2023-06-22T01:21:14;6.68;;;6.05;;
5981;SDS011;3018;48.730;9.336;2023-06-22T01:23:46;7.03;;;6.43;;
5981;SDS011;3018;48.730;9.336;2023-06-22T01:26:18;7.00;;;6.30;;
5981;SDS011;3018;48.730;9.336;2023-06-22T01:28:47;8.27;;;6.88;;
5981;SDS011;3018;48.730;9.336;2023-06-22T01:31:15;6.90;;;6.20;;
5981;SDS011;3018;48.730;9.336;2023-06-22T01:33:43;8.32;;;6.40;;
5981;SDS011;3018;48.730;9.336;2023-06-22T01:36:09;8.38;;;6.65;;
5981;SDS011;3018;48.730;9.336;2023-06-22T01:38:36;12.15;;;7.07;;
5981;SDS011;3018;48.730;9.336;2023-06-22T01:41:03;6.93;;;6.22;;
5981;SDS011;3018;48.730;9.336;2023-06-22T01:43:30;7.82;;;5.78;;
5981;SDS011;3018;48.730;9.336;2023-06-22T01:45:59;6.60;;;5.85;;
5981;SDS011;3018;48.730;9.336;2023-06-22T01:48:25;7.85;;;6.93;;
5981;SDS011;3018;48.730;9.336;2023-06-22T01:50:52;6.88;;;6.20;;
5981;SDS011;3018;48.730;9.336;2023-06-22T01:53:20;8.82;;;6.47;;
5981;SDS011;3018;48.730;9.336;2023-06-22T01:55:46;7.30;;;6.60;;
5981;SDS011;3018;48.730;9.336;2023-06-22T01:58:12;7.88;;;5.65;;
5981;SDS011;3018;48.730;9.336;2023-06-22T02:00:39;6.45;;;5.85;;
5981;SDS011;3018;48.730;9.336;2023-06-22T02:03:10;7.35;;;5.70;;
5981;SDS011;3018;48.730;9.336;2023-06-22T02:05:37;7.22;;;5.57;;
5981;SDS011;3018;48.730;9.336;2023-06-22T02:08:07;7.15;;;6.45;;
5981;SDS011;3018;48.730;9.336;2023-06-22T02:10:35;8.00;;;6.50;;
5981;SDS011;3018;48.730;9.336;2023-06-22T02:13:02;6.60;;;5.30;;
5981;SDS011;3018;48.730;9.336;2023-06-22T02:15:28;7.72;;;6.15;;
5981;SDS011;3018;48.730;9.336;2023-06-22T02:17:55;6.82;;;5.95;;
5981;SDS011;3018;48.730;9.336;2023-06-22T02:20:23;7.90;;;6.35;;
5981;SDS011;3018;48.730;9.336;2023-06-22T02:22:49;10.50;;;6.70;;
5981;SDS011;3018;48.730;9.336;2023-06-22T02:25:16;6.88;;;6.10;;
5981;SDS011;3018;48.730;9.336;2023-06-22T02:27:42;6.15;;;5.65;;
5981;SDS011;3018;48.730;9.336;2023-06-22T02:30:08;9.65;;;6.05;;
5981;SDS011;3018;48.730;9.336;2023-06-22T02:32:35;7.25;;;6.47;;
5981;SDS011;3018;48.730;9.336;2023-06-22T02:35:01;7.30;;;5.75;;
5981;SDS011;3018;48.730;9.336;2023-06-22T02:37:30;8.07;;;6.03;;
5981;SDS011;3018;48.730;9.336;2023-06-22T02:39:56;9.98;;;6.18;;
5981;SDS011;3018;48.730;9.336;2023-06-22T02:42:23;7.78;;;6.72;;
5981;SDS011;3018;48.730;9.336;2023-06-22T02:44:49;8.13;;;6.68;;
5981;SDS011;3018;48.730;9.336;2023-06-22T02:47:15;9.32;;;6.90;;
5981;SDS011;3018;48.730;9.336;2023-06-22T02:49:41;8.35;;;6.55;;
5981;SDS011;3018;48.730;9.336;2023-06-22T02:52:10;9.45;;;6.68;;
5981;SDS011;3018;48.730;9.336;2023-06-22T02:54:37;8.30;;;7.28;;
5981;SDS011;3018;48.730;9.336;2023-06-22T02:57:04;8.27;;;7.18;;
5981;SDS011;3018;48.730;9.336;2023-06-22T02:59:30;13.05;;;7.80;;
5981;SDS011;3018;48.730;9.336;2023-06-22T03:01:56;8.88;;;7.55;;
5981;SDS011;3018;48.730;9.336;2023-06-22T03:04:23;8.32;;;6.57;;
5981;SDS011;3018;48.730;9.336;2023-06-22T03:06:49;10.35;;;6.70;;
5981;SDS011;3018;48.730;9.336;2023-06-22T03:09:16;9.43;;;6.22;;
5981;SDS011;3018;48.730;9.336;2023-06-22T03:11:44;7.43;;;6.72;;
5981;SDS011;3018;48.730;9.336;2023-06-22T03:14:10;10.20;;;7.55;;
5981;SDS011;3018;48.730;9.336;2023-06-22T03:16:36;8.05;;;6.78;;
5981;SDS011;3018;48.730;9.336;2023-06-22T03:19:03;8.18;;;6.88;;
5981;SDS011;3018;48.730;9.336;2023-06-22T03:21:29;9.98;;;6.60;;
5981;SDS011;3018;48.730;9.336;2023-06-22T03:23:57;7.13;;;6.57;;
5981;SDS011;3018;48.730;9.336;2023-06-22T03:26:23;9.30;;;7.28;;
5981;SDS011;3018;48.730;9.336;2023-06-22T03:28:53;8.63;;;7.47;;
5981;SDS011;3018;48.730;9.336;2023-06-22T03:31:19;10.15;;;7.25;;
5981;SDS011;3018;48.730;9.336;2023-06-22T03:33:46;7.95;;;6.15;;
5981;SDS011;3018;48.730;9.336;2023-06-22T03:36:12;7.85;;;7.15;;
5981;SDS011;3018;48.730;9.336;2023-06-22T03:38:39;7.82;;;7.00;;
5981;SDS011;3018;48.730;9.336;2023-06-22T03:41:05;8.45;;;6.60;;
5981;SDS011;3018;48.730;9.336;2023-06-22T03:43:31;7.32;;;6.70;;
5981;SDS011;3018;48.730;9.336;2023-06-22T03:45:59;8.80;;;6.75;;
5981;SDS011;3018;48.730;9.336;2023-06-22T03:48:25;8.32;;;6.93;;
5981;SDS011;3018;48.730;9.336;2023-06-22T03:50:51;7.32;;;6.63;;
5981;SDS011;3018;48.730;9.336;2023-06-22T03:53:17;10.73;;;7.38;;
5981;SDS011;3018;48.730;9.336;2023-06-22T03:55:47;7.50;;;6.80;;
5981;SDS011;3018;48.730;9.336;2023-06-22T03:58:14;10.43;;;7.22;;
5981;SDS011;3018;48.730;9.336;2023-06-22T04:00:40;8.40;;;7.40;;
5981;SDS011;3018;48.730;9.336;2023-06-22T04:03:08;7.70;;;7.10;;
5981;SDS011;3018;48.730;9.336;2023-06-22T04:05:34;9.25;;;6.43;;
5981;SDS011;3018;48.730;9.336;2023-06-22T04:08:00;8.05;;;6.95;;
5981;SDS011;3018;48.730;9.336;2023-06-22T04:10:26;8.88;;;7.00;;
5981;SDS011;3018;48.730;9.336;2023-06-22T04:12:53;6.88;;;6.22;;
5981;SDS011;3018;48.730;9.336;2023-06-22T04:15:19;11.13;;;6.85;;
5981;SDS011;3018;48.730;9.336;2023-06-22T04:17:45;9.27;;;6.70;;
5981;SDS011;3018;48.730;9.336;2023-06-22T04:20:13;13.02;;;7.22;;
5981;SDS011;3018;48.730;9.336;2023-06-22T04:22:39;9.80;;;7.35;;
5981;SDS011;3018;48.730;9.336;2023-06-22T04:25:06;11.07;;;7.43;;
5981;SDS011;3018;48.730;9.336;2023-06-22T04:27:32;7.72;;;6.90;;
5981;SDS011;3018;48.730;9.336;2023-06-22T04:30:02;8.40;;;6.93;;
5981;SDS011;3018;48.730;9.336;2023-06-22T04:32:28;8.75;;;7.03;;
5981;SDS011;3018;48.730;9.336;2023-06-22T04:34:54;8.73;;;7.05;;
5981;SDS011;3018;48.730;9.336;2023-06-22T04:37:22;8.25;;;6.63;;
5981;SDS011;3018;48.730;9.336;2023-06-22T04:39:49;8.23;;;6.70;;
5981;SDS011;3018;48.730;9.336;2023-06-22T04:42:15;10.07;;;7.60;;
5981;SDS011;3018;48.730;9.336;2023-06-22T04:44:42;8.43;;;7.63;;
5981;SDS011;3018;48.730;9.336;2023-06-22T04:47:08;7.72;;;6.93;;
5981;SDS011;3018;48.730;9.336;2023-06-22T04:49:35;8.32;;;7.53;;
5981;SDS011;3018;48.730;9.336;2023-06-22T04:52:03;10.50;;;8.35;;
5981;SDS011;3018;48.730;9.336;2023-06-22T04:54:31;8.75;;;8.05;;
5981;SDS011;3018;48.730;9.336;2023-06-22T04:56:58;8.32;;;7.45;;
5981;SDS011;3018;48.730;9.336;2023-06-22T04:59:26;9.90;;;7.40;;
5981;SDS011;3018;48.730;9.336;2023-06-22T05:01:54;13.52;;;7.78;;
5981;SDS011;3018;48.730;9.336;2023-06-22T05:04:21;8.77;;;7.90;;
5981;SDS011;3018;48.730;9.336;2023-06-22T05:06:48;9.20;;;7.93;;
5981;SDS011;3018;48.730;9.336;2023-06-22T05:09:14;11.43;;;7.80;;
5981;SDS011;3018;48.730;9.336;2023-06-22T05:11:42;11.38;;;8.48;;
5981;SDS011;3018;48.730;9.336;2023-06-22T05:14:08;8.95;;;7.38;;
5981;SDS011;3018;48.730;9.336;2023-06-22T05:16:34;7.93;;;7.05;;
5981;SDS011;3018;48.730;9.336;2023-06-22T05:19:01;9.00;;;6.80;;
5981;SDS011;3018;48.730;9.336;2023-06-22T05:21:28;8.55;;;6.80;;
5981;SDS011;3018;48.730;9.336;2023-06-22T05:23:54;8.02;;;6.85;;
5981;SDS011;3018;48.730;9.336;2023-06-22T05:26:25;9.45;;;6.65;;
5981;SDS011;3018;48.730;9.336;2023-06-22T05:28:52;7.85;;;6.95;;
5981;SDS011;3018;48.730;9.336;2023-06-22T05:31:19;7.43;;;6.22;;
5981;SDS011;3018;48.730;9.336;2023-06-22T05:33:46;7.13;;;6.18;;
5981;SDS011;3018;48.730;9.336;2023-06-22T05:36:12;8.05;;;6.38;;
5981;SDS011;3018;48.730;9.336;2023-06-22T05:38:39;9.38;;;6.60;;
5981;SDS011;3018;48.730;9.336;2023-06-22T05:41:05;8.68;;;6.35;;
5981;SDS011;3018;48.730;9.336;2023-06-22T05:43:31;6.95;;;5.90;;
5981;SDS011;3018;48.730;9.336;2023-06-22T05:45:59;7.00;;;6.22;;
5981;SDS011;3018;48.730;9.336;2023-06-22T05:48:26;7.13;;;5.57;;
5981;SDS011;3018;48.730;9.336;2023-06-22T05:50:52;8.35;;;5.68;;
5981;SDS011;3018;48.730;9.336;2023-06-22T05:53:19;8.10;;;6.22;;
5981;SDS011;3018;48.730;9.336;2023-06-22T05:55:45;9.18;;;5.50;;
5981;SDS011;3018;48.730;9.336;2023-06-22T05:58:11;7.78;;;5.78;;
5981;SDS011;3018;48.730;9.336;2023-06-22T06:00:38;6.32;;;5.50;;
5981;SDS011;3018;48.730;9.336;2023-06-22T06:03:06;5.95;;;5.35;;
5981;SDS011;3018;48.730;9.336;2023-06-22T06:05:33;7.32;;;5.35;;
5981;SDS011;3018;48.730;9.336;2023-06-22T06:07:59;5.95;;;5.28;;
5981;SDS011;3018;48.730;9.336;2023-06-22T06:10:26;9.70;;;5.47;;
5981;SDS011;3018;48.730;9.336;2023-06-22T06:12:54;5.20;;;4.70;;
5981;SDS011;3018;48.730;9.336;2023-06-22T06:15:20;5.43;;;4.53;;
5981;SDS011;3018;48.730;9.336;2023-06-22T06:17:47;6.07;;;4.93;;
5981;SDS011;3018;48.730;9.336;2023-06-22T06:20:15;7.18;;;5.07;;
5981;SDS011;3018;48.730;9.336;2023-06-22T06:22:41;11.07;;;4.55;;
5981;SDS011;3018;48.730;9.336;2023-06-22T06:25:08;5.45;;;4.57;;
5981;SDS011;3018;48.730;9.336;2023-06-22T06:27:35;6.90;;;4.70;;
5981;SDS011;3018;48.730;9.336;2023-06-22T06:30:01;5.15;;;4.30;;
5981;SDS011;3018;48.730;9.336;2023-06-22T06:32:28;5.07;;;4.57;;
5981;SDS011;3018;48.730;9.336;2023-06-22T06:34:54;11.15;;;4.80;;
5981;SDS011;3018;48.730;9.336;2023-06-22T06:37:22;7.70;;;4.43;;
5981;SDS011;3018;48.730;9.336;2023-06-22T06:39:49;7.43;;;5.03;;
5981;SDS011;3018;48.730;9.336;2023-06-22T06:42:15;7.65;;;4.57;;
5981;SDS011;3018;48.730;9.336;2023-06-22T06:44:41;4.63;;;4.18;;
5981;SDS011;3018;48.730;9.336;2023-06-22T06:47:07;6.90;;;4.00;;
5981;SDS011;3018;48.730;9.336;2023-06-22T06:49:34;5.20;;;4.55;;
5981;SDS011;3018;48.730;9.336;2023-06-22T06:52:00;4.68;;;3.65;;
5981;SDS011;3018;48.730;9.336;2023-06-22T06:54:28;9.27;;;4.40;;
5981;SDS011;3018;48.730;9.336;2023-06-22T06:56:54;4.72;;;3.92;;
5981;SDS011;3018;48.730;9.336;2023-06-22T06:59:21;3.55;;;3.30;;
5981;SDS011;3018;48.730;9.336;2023-06-22T07:02:01;5.82;;;3.85;;
5981;SDS011;3018;48.730;9.336;2023-06-22T07:04:47;4.30;;;3.90;;
5981;SDS011;3018;48.730;9.336;2023-06-22T07:07:14;6.53;;;4.00;;
5981;SDS011;3018;48.730;9.336;2023-06-22T07:09:41;5.50;;;3.97;;
5981;SDS011;3018;48.730;9.336;2023-06-22T07:12:08;3.80;;;3.50;;
5981;SDS011;3018;48.730;9.336;2023-06-22T07:14:34;4.13;;;3.65;;
5981;SDS011;3018;48.730;9.336;2023-06-22T07:17:01;6.97;;;4.35;;
5981;SDS011;3018;48.730;9.336;2023-06-22T07:19:27;6.95;;;4.15;;
5981;SDS011;3018;48.730;9.336;2023-06-22T07:21:53;9.85;;;4.47;;
5981;SDS011;3018;48.730;9.336;2023-06-22T07:24:20;4.35;;;3.92;;
5981;SDS011;3018;48.730;9.336;2023-06-22T07:26:48;7.35;;;4.20;;
5981;SDS011;3018;48.730;9.336;2023-06-22T07:29:15;4.15;;;3.42;;
5981;SDS011;3018;48.730;9.336;2023-06-22T07:31:41;9.18;;;4.22;;
5981;SDS011;3018;48.730;9.336;2023-06-22T07:34:07;6.20;;;4.00;;
5981;SDS011;3018;48.730;9.336;2023-06-22T07:36:34;7.00;;;4.07;;
5981;SDS011;3018;48.730;9.336;2023-06-22T07:39:00;6.07;;;3.75;;
5981;SDS011;3018;48.730;9.336;2023-06-22T07:41:28;9.85;;;3.70;;
5981;SDS011;3018;48.730;9.336;2023-06-22T07:43:55;6.18;;;4.47;;
5981;SDS011;3018;48.730;9.336;2023-06-22T07:46:21;6.72;;;4.32;;
5981;SDS011;3018;48.730;9.336;2023-06-22T07:48:48;9.23;;;4.07;;
5981;SDS011;3018;48.730;9.336;2023-06-22T07:51:14;10.52;;;3.97;;
5981;SDS011;3018;48.730;9.336;2023-06-22T07:53:41;8.38;;;4.00;;
5981;SDS011;3018;48.730;9.336;2023-06-22T07:56:09;11.45;;;4.50;;
5981;SDS011;3018;48.730;9.336;2023-06-22T07:58:36;7.22;;;4.60;;
5981;SDS011;3018;48.730;9.336;2023-06-22T08:01:03;8.45;;;4.25;;
5981;SDS011;3018;48.730;9.336;2023-06-22T08:03:31;5.15;;;3.65;;
5981;SDS011;3018;48.730;9.336;2023-06-22T08:05:57;11.10;;;4.50;;
5981;SDS011;3018;48.730;9.336;2023-06-22T08:08:24;14.45;;;4.50;;
5981;SDS011;3018;48.730;9.336;2023-06-22T08:10:50;9.10;;;3.83;;
5981;SDS011;3018;48.730;9.336;2023-06-22T08:13:16;9.38;;;4.30;;
5981;SDS011;3018;48.730;9.336;2023-06-22T08:15:43;10.02;;;4.63;;
5981;SDS011;3018;48.730;9.336;2023-06-22T08:18:10;11.57;;;4.65;;
5981;SDS011;3018;48.730;9.336;2023-06-22T08:20:36;9.02;;;4.07;;
5981;SDS011;3018;48.730;9.336;2023-06-22T08:23:03;15.02;;;4.40;;
5981;SDS011;3018;48.730;9.336;2023-06-22T08:25:31;7.88;;;4.43;;
5981;SDS011;3018;48.730;9.336;2023-06-22T08:27:57;7.78;;;3.85;;
5981;SDS011;3018;48.730;9.336;2023-06-22T08:30:23;10.70;;;4.65;;
5981;SDS011;3018;48.730;9.336;2023-06-22T08:32:50;16.83;;;5.00;;
5981;SDS011;3018;48.730;9.336;2023-06-22T08:35:17;13.70;;;5.20;;
5981;SDS011;3018;48.730;9.336;2023-06-22T08:37:44;11.88;;;4.55;;
5981;SDS011;3018;48.730;9.336;2023-06-22T08:40:18;16.23;;;5.07;;
5981;SDS011;3018;48.730;9.336;2023-06-22T08:42:44;14.93;;;5.43;;
5981;SDS011;3018;48.730;9.336;2023-06-22T08:45:11;16.40;;;5.07;;
5981;SDS011;3018;48.730;9.336;2023-06-22T08:47:37;18.23;;;5.03;;
5981;SDS011;3018;48.730;9.336;2023-06-22T08:50:04;18.65;;;5.50;;
5981;SDS011;3018;48.730;9.336;2023-06-22T08:52:32;10.15;;;5.00;;
5981;SDS011;3018;48.730;9.336;2023-06-22T08:54:59;13.25;;;4.82;;
5981;SDS011;3018;48.730;9.336;2023-06-22T08:57:25;10.10;;;5.20;;
5981;SDS011;3018;48.730;9.336;2023-06-22T08:59:51;23.40;;;5.80;;
5981;SDS011;3018;48.730;9.336;2023-06-22T09:02:18;8.15;;;5.05;;
5981;SDS011;3018;48.730;9.336;2023-06-22T09:04:45;11.52;;;5.22;;
5981;SDS011;3018;48.730;9.336;2023-06-22T09:07:11;13.68;;;4.97;;
5981;SDS011;3018;48.730;9.336;2023-06-22T09:09:39;11.02;;;4.85;;
5981;SDS011;3018;48.730;9.336;2023-06-22T09:12:06;7.80;;;4.35;;
5981;SDS011;3018;48.730;9.336;2023-06-22T09:14:33;8.57;;;4.95;;
5981;SDS011;3018;48.730;9.336;2023-06-22T09:16:59;15.32;;;5.45;;
5981;SDS011;3018;48.730;9.336;2023-06-22T09:19:25;7.28;;;5.30;;
5981;SDS011;3018;48.730;9.336;2023-06-22T09:21:51;13.18;;;4.90;;
5981;SDS011;3018;48.730;9.336;2023-06-22T09:24:18;7.13;;;5.00;;
5981;SDS011;3018;48.730;9.336;2023-06-22T09:26:45;17.02;;;5.57;;
5981;SDS011;3018;48.730;9.336;2023-06-22T09:29:12;15.10;;;5.50;;
5981;SDS011;3018;48.730;9.336;2023-06-22T09:31:38;11.95;;;5.07;;
5981;SDS011;3018;48.730;9.336;2023-06-22T09:34:04;10.70;;;5.35;;
5981;SDS011;3018;48.730;9.336;2023-06-22T09:36:30;16.42;;;5.30;;
5981;SDS011;3018;48.730;9.336;2023-06-22T09:38:57;13.27;;;5.65;;
5981;SDS011;3018;48.730;9.336;2023-06-22T09:41:24;7.82;;;5.10;;
5981;SDS011;3018;48.730;9.336;2023-06-22T09:43:51;11.20;;;4.68;;
5981;SDS011;3018;48.730;9.336;2023-06-22T09:46:18;11.20;;;4.82;;
5981;SDS011;3018;48.730;9.336;2023-06-22T09:48:46;14.13;;;5.28;;
5981;SDS011;3018;48.730;9.336;2023-06-22T09:51:13;7.40;;;5.07;;
5981;SDS011;3018;48.730;9.336;2023-06-22T09:53:39;12.15;;;5.47;;
5981;SDS011;3018;48.730;9.336;2023-06-22T09:56:05;15.02;;;5.70;;
5981;SDS011;3018;48.730;9.336;2023-06-22T09:58:32;15.75;;;5.38;;
5981;SDS011;3018;48.730;9.336;2023-06-22T10:00:59;15.70;;;5.68;;
5981;SDS011;3018;48.730;9.336;2023-06-22T10:03:26;13.20;;;5.22;;
5981;SDS011;3018;48.730;9.336;2023-06-22T10:05:52;15.13;;;6.07;;
5981;SDS011;3018;48.730;9.336;2023-06-22T10:08:18;9.90;;;5.15;;
5981;SDS011;3018;48.730;9.336;2023-06-22T10:10:45;11.05;;;5.57;;
5981;SDS011;3018;48.730;9.336;2023-06-22T10:13:11;11.38;;;5.60;;
5981;SDS011;3018;48.730;9.336;2023-06-22T10:15:38;13.40;;;5.30;;
5981;SDS011;3018;48.730;9.336;2023-06-22T10:18:05;12.45;;;5.50;;
5981;SDS011;3018;48.730;9.336;2023-06-22T10:23:41;11.13;;;4.97;;
5981;SDS011;3018;48.730;9.336;2023-06-22T10:26:15;14.63;;;5.70;;
5981;SDS011;3018;48.730;9.336;2023-06-22T10:28:42;10.50;;;5.72;;
5981;SDS011;3018;48.730;9.336;2023-06-22T10:31:08;11.13;;;5.78;;
5981;SDS011;3018;48.730;9.336;2023-06-22T10:33:35;15.88;;;6.00;;
5981;SDS011;3018;48.730;9.336;2023-06-22T10:36:02;10.88;;;5.50;;
5981;SDS011;3018;48.730;9.336;2023-06-22T10:38:28;12.85;;;5.72;;
5981;SDS011;3018;48.730;9.336;2023-06-22T10:40:54;19.60;;;5.80;;
5981;SDS011;3018;48.730;9.336;2023-06-22T10:43:21;14.57;;;6.03;;
5981;SDS011;3018;48.730;9.336;2023-06-22T10:45:47;14.25;;;5.85;;
5981;SDS011;3018;48.730;9.336;2023-06-22T10:48:13;10.90;;;5.47;;
5981;SDS011;3018;48.730;9.336;2023-06-22T10:50:41;14.85;;;5.35;;
5981;SDS011;3018;48.730;9.336;2023-06-22T10:53:07;16.38;;;5.72;;
5981;SDS011;3018;48.730;9.336;2023-06-22T10:55:33;17.15;;;6.05;;
5981;SDS011;3018;48.730;9.336;2023-06-22T10:57:59;10.27;;;5.35;;
5981;SDS011;3018;48.730;9.336;2023-06-22T11:00:26;14.60;;;5.55;;
5981;SDS011;3018;48.730;9.336;2023-06-22T11:02:52;11.25;;;5.65;;
5981;SDS011;3018;48.730;9.336;2023-06-22T11:05:18;12.68;;;6.68;;
5981;SDS011;3018;48.730;9.336;2023-06-22T11:07:46;12.43;;;5.72;;
5981;SDS011;3018;48.730;9.336;2023-06-22T11:10:14;13.93;;;5.85;;
5981;SDS011;3018;48.730;9.336;2023-06-22T11:12:40;16.60;;;5.60;;
5981;SDS011;3018;48.730;9.336;2023-06-22T11:15:08;22.08;;;5.72;;
5981;SDS011;3018;48.730;9.336;2023-06-22T11:17:34;15.05;;;6.07;;
5981;SDS011;3018;48.730;9.336;2023-06-22T11:20:00;15.45;;;5.57;;
5981;SDS011;3018;48.730;9.336;2023-06-22T11:22:29;19.77;;;6.07;;
5981;SDS011;3018;48.730;9.336;2023-06-22T11:24:59;16.70;;;5.82;;
5981;SDS011;3018;48.730;9.336;2023-06-22T11:27:26;10.48;;;5.30;;
5981;SDS011;3018;48.730;9.336;2023-06-22T11:29:53;17.10;;;5.88;;
5981;SDS011;3018;48.730;9.336;2023-06-22T11:32:19;11.15;;;5.75;;
5981;SDS011;3018;48.730;9.336;2023-06-22T11:34:45;8.35;;;5.40;;
5981;SDS011;3018;48.730;9.336;2023-06-22T11:37:11;13.50;;;6.00;;
5981;SDS011;3018;48.730;9.336;2023-06-22T11:39:38;12.95;;;5.43;;
5981;SDS011;3018;48.730;9.336;2023-06-22T11:42:06;13.10;;;5.97;;
5981;SDS011;3018;48.730;9.336;2023-06-22T11:44:32;11.70;;;5.82;;
5981;SDS011;3018;48.730;9.336;2023-06-22T11:46:59;10.13;;;5.35;;
5981;SDS011;3018;48.730;9.336;2023-06-22T11:49:25;13.00;;;5.32;;
5981;SDS011;3018;48.730;9.336;2023-06-22T11:51:52;17.17;;;5.63;;
5981;SDS011;3018;48.730;9.336;2023-06-22T11:54:18;13.43;;;5.43;;
5981;SDS011;3018;48.730;9.336;2023-06-22T11:56:44;14.63;;;5.78;;
5981;SDS011;3018;48.730;9.336;2023-06-22T11:59:12;18.63;;;6.00;;
5981;SDS011;3018;48.730;9.336;2023-06-22T12:01:38;17.08;;;5.85;;
5981;SDS011;3018;48.730;9.336;2023-06-22T12:04:05;13.77;;;5.32;;
5981;SDS011;3018;48.730;9.336;2023-06-22T12:06:31;19.08;;;5.28;;
5981;SDS011;3018;48.730;9.336;2023-06-22T12:08:58;10.10;;;5.32;;
5981;SDS011;3018;48.730;9.336;2023-06-22T12:11:24;13.80;;;5.38;;
5981;SDS011;3018;48.730;9.336;2023-06-22T12:13:50;16.77;;;5.15;;
5981;SDS011;3018;48.730;9.336;2023-06-22T12:16:18;10.23;;;5.03;;
5981;SDS011;3018;48.730;9.336;2023-06-22T12:18:46;12.48;;;5.22;;
5981;SDS011;3018;48.730;9.336;2023-06-22T12:21:13;19.35;;;5.63;;
5981;SDS011;3018;48.730;9.336;2023-06-22T12:23:39;11.23;;;5.03;;
5981;SDS011;3018;48.730;9.336;2023-06-22T12:26:05;16.67;;;6.07;;
5981;SDS011;3018;48.730;9.336;2023-06-22T12:28:32;10.48;;;5.05;;
5981;SDS011;3018;48.730;9.336;2023-06-22T12:30:58;14.90;;;5.43;;
5981;SDS011;3018;48.730;9.336;2023-06-22T12:33:26;17.52;;;5.80;;
5981;SDS011;3018;48.730;9.336;2023-06-22T12:35:52;15.50;;;5.85;;
5981;SDS011;3018;48.730;9.336;2023-06-22T12:38:18;12.15;;;5.20;;
5981;SDS011;3018;48.730;9.336;2023-06-22T12:40:44;20.95;;;6.50;;
5981;SDS011;3018;48.730;9.336;2023-06-22T12:43:12;14.88;;;5.50;;
5981;SDS011;3018;48.730;9.336;2023-06-22T12:45:38;15.23;;;5.50;;
5981;SDS011;3018;48.730;9.336;2023-06-22T12:48:05;19.52;;;6.05;;
5981;SDS011;3018;48.730;9.336;2023-06-22T12:50:34;13.45;;;5.20;;
5981;SDS011;3018;48.730;9.336;2023-06-22T12:53:01;13.30;;;5.50;;
5981;SDS011;3018;48.730;9.336;2023-06-22T12:55:29;15.23;;;5.72;;
5981;SDS011;3018;48.730;9.336;2023-06-22T12:57:55;16.30;;;5.63;;
5981;SDS011;3018;48.730;9.336;2023-06-22T13:00:21;14.07;;;5.82;;
5981;SDS011;3018;48.730;9.336;2023-06-22T13:02:47;13.98;;;5.70;;
5981;SDS011;3018;48.730;9.336;2023-06-22T13:05:14;12.27;;;5.53;;
5981;SDS011;3018;48.730;9.336;2023-06-22T13:07:41;14.75;;;5.65;;
5981;SDS011;3018;48.730;9.336;2023-06-22T13:10:08;15.82;;;5.57;;
5981;SDS011;3018;48.730;9.336;2023-06-22T13:12:34;17.83;;;5.35;;
5981;SDS011;3018;48.730;9.336;2023-06-22T13:15:00;14.68;;;5.45;;
5981;SDS011;3018;48.730;9.336;2023-06-22T13:17:28;14.32;;;5.15;;
5981;SDS011;3018;48.730;9.336;2023-06-22T13:19:54;15.75;;;5.45;;
5981;SDS011;3018;48.730;9.336;2023-06-22T13:22:28;11.60;;;5.68;;
5981;SDS011;3018;48.730;9.336;2023-06-22T13:24:56;15.27;;;5.90;;
5981;SDS011;3018;48.730;9.336;2023-06-22T13:27:22;10.48;;;5.22;;
5981;SDS011;3018;48.730;9.336;2023-06-22T13:29:48;17.15;;;5.40;;
5981;SDS011;3018;48.730;9.336;2023-06-22T13:32:15;15.23;;;5.60;;
5981;SDS011;3018;48.730;9.336;2023-06-22T13:34:41;16.80;;;5.53;;
5981;SDS011;3018;48.730;9.336;2023-06-22T13:37:07;11.68;;;5.32;;
5981;SDS011;3018;48.730;9.336;2023-06-22T13:39:34;11.18;;;5.05;;
5981;SDS011;3018;48.730;9.336;2023-06-22T13:42:01;16.10;;;5.32;;
5981;SDS011;3018;48.730;9.336;2023-06-22T13:44:27;17.30;;;5.50;;
5981;SDS011;3018;48.730;9.336;2023-06-22T13:46:54;13.93;;;4.97;;
5981;SDS011;3018;48.730;9.336;2023-06-22T13:49:20;13.55;;;5.28;;
5981;SDS011;3018;48.730;9.336;2023-06-22T13:51:47;14.63;;;5.18;;
5981;SDS011;3018;48.730;9.336;2023-06-22T13:54:14;15.57;;;5.50;;
5981;SDS011;3018;48.730;9.336;2023-06-22T13:56:40;13.55;;;4.90;;
5981;SDS011;3018;48.730;9.336;2023-06-22T13:59:08;11.48;;;4.85;;
5981;SDS011;3018;48.730;9.336;2023-06-22T14:01:35;15.07;;;4.93;;
5981;SDS011;3018;48.730;9.336;2023-06-22T14:04:01;19.10;;;4.93;;
5981;SDS011;3018;48.730;9.336;2023-06-22T14:06:28;10.38;;;4.82;;
5981;SDS011;3018;48.730;9.336;2023-06-22T14:08:54;21.15;;;5.00;;
5981;SDS011;3018;48.730;9.336;2023-06-22T14:11:21;13.63;;;5.05;;
5981;SDS011;3018;48.730;9.336;2023-06-22T14:13:47;20.08;;;5.65;;
5981;SDS011;3018;48.730;9.336;2023-06-22T14:16:15;15.93;;;5.47;;
5981;SDS011;3018;48.730;9.336;2023-06-22T14:18:41;13.63;;;5.40;;
5981;SDS011;3018;48.730;9.336;2023-06-22T14:21:07;13.23;;;4.80;;
5981;SDS011;3018;48.730;9.336;2023-06-22T14:23:33;11.90;;;4.88;;
5981;SDS011;3018;48.730;9.336;2023-06-22T14:26:00;18.13;;;5.50;;
5981;SDS011;3018;48.730;9.336;2023-06-22T14:28:26;16.15;;;5.15;;
5981;SDS011;3018;48.730;9.336;2023-06-22T14:30:52;10.57;;;5.38;;
5981;SDS011;3018;48.730;9.336;2023-06-22T14:33:20;14.50;;;5.25;;
5981;SDS011;3018;48.730;9.336;2023-06-22T14:35:46;13.32;;;4.97;;
5981;SDS011;3018;48.730;9.336;2023-06-22T14:38:12;17.33;;;5.28;;
5981;SDS011;3018;48.730;9.336;2023-06-22T14:40:39;13.88;;;5.43;;
5981;SDS011;3018;48.730;9.336;2023-06-22T14:43:05;10.15;;;5.00;;
5981;SDS011;3018;48.730;9.336;2023-06-22T14:45:31;14.48;;;5.20;;
5981;SDS011;3018;48.730;9.336;2023-06-22T14:47:57;9.88;;;5.30;;
5981;SDS011;3018;48.730;9.336;2023-06-22T14:50:25;14.25;;;4.95;;
5981;SDS011;3018;48.730;9.336;2023-06-22T14:52:51;23.00;;;5.70;;
5981;SDS011;3018;48.730;9.336;2023-06-22T14:55:17;20.65;;;5.28;;
5981;SDS011;3018;48.730;9.336;2023-06-22T14:57:44;17.05;;;5.13;;
5981;SDS011;3018;48.730;9.336;2023-06-22T15:00:10;12.48;;;4.65;;
5981;SDS011;3018;48.730;9.336;2023-06-22T15:02:37;15.00;;;5.18;;
5981;SDS011;3018;48.730;9.336;2023-06-22T15:05:03;11.77;;;4.57;;
5981;SDS011;3018;48.730;9.336;2023-06-22T15:07:31;14.93;;;4.65;;